createdAt,value
2023-09-18T00:02:29.537Z,101017.75
2023-09-18T00:07:35.039Z,101016.56
2023-09-18T00:12:36.869Z,101013.72
2023-09-18T00:17:41.304Z,101000.50
2023-09-18T00:22:45.818Z,100998.72
2023-09-18T00:27:50.580Z,100988.59
2023-09-18T00:32:54.698Z,100986.34
2023-09-18T00:37:59.919Z,100977.47
2023-09-18T00:43:01.634Z,100967.34
2023-09-18T00:48:03.702Z,100942.84
2023-09-18T00:53:08.130Z,100933.53
2023-09-18T00:58:15.596Z,100909.97
2023-09-18T01:03:19.708Z,100893.25
2023-09-18T01:08:26.284Z,100874.31
2023-09-18T01:13:37.859Z,100855.09
2023-09-18T01:18:39.632Z,100839.31
2023-09-18T01:23:43.613Z,100850.38
2023-09-18T01:28:47.925Z,100836.81
2023-09-18T01:33:50.132Z,100821.97
2023-09-18T01:38:56.945Z,100795.97
2023-09-18T01:43:58.881Z,100796.78
2023-09-18T01:49:00.616Z,100804.31
2023-09-18T01:54:07.166Z,100803.72
2023-09-18T01:59:11.817Z,100797.50
2023-09-18T02:04:24.540Z,100782.53
2023-09-18T02:09:38.160Z,100788.78
2023-09-18T02:14:45.517Z,100792.56
2023-09-18T02:19:52.712Z,100797.97
2023-09-18T02:24:59.568Z,100783.59
2023-09-18T02:30:01.296Z,100782.53
2023-09-18T02:35:05.430Z,100771.47
2023-09-18T02:40:12.625Z,100761.69
2023-09-18T02:45:14.382Z,100761.69
2023-09-18T02:50:16.223Z,100759.81
2023-09-18T02:55:20.764Z,100755.47
2023-09-18T03:00:42.783Z,100738.97
2023-09-18T03:05:48.548Z,100729.41
2023-09-18T03:10:55.302Z,100711.31
2023-09-18T03:16:00.546Z,100705.88
2023-09-18T03:21:09.731Z,100702.34
2023-09-18T03:26:13.657Z,100688.78
2023-09-18T03:31:15.742Z,100689.28
2023-09-18T03:36:17.751Z,100684.69
2023-09-18T03:41:19.702Z,100672.78
2023-09-18T03:46:22.259Z,100651.72
2023-09-18T03:51:31.411Z,100641.69
2023-09-18T03:56:33.712Z,100626.03
2023-09-18T04:01:37.792Z,100620.38
2023-09-18T04:06:44.697Z,100592.44
2023-09-18T04:11:49.045Z,100579.41
2023-09-18T04:16:57.929Z,100567.75
2023-09-18T04:21:59.774Z,100555.50
2023-09-18T04:27:02.146Z,100548.44
2023-09-18T04:32:05.567Z,100544.09
2023-09-18T04:37:12.973Z,100535.13
2023-09-18T04:42:15.254Z,100526.53
2023-09-18T04:47:17.232Z,100511.19
2023-09-18T04:52:21.485Z,100493.75
2023-09-18T04:57:23.461Z,100476.66
2023-09-18T05:02:26.635Z,100462.06
2023-09-18T05:07:35.214Z,100452.94
2023-09-18T05:12:41.119Z,100444.16
2023-09-18T05:17:53.679Z,100424.53
2023-09-18T05:22:56.892Z,100414.19
2023-09-18T05:28:00.853Z,100407.13
2023-09-18T05:33:06.927Z,100398.75
2023-09-18T05:38:12.132Z,100380.13
2023-09-18T05:43:19.196Z,100382.09
2023-09-18T05:48:25.780Z,100371.09
2023-09-18T05:53:31.514Z,100366.59
2023-09-18T05:58:36.894Z,100351.47
2023-09-18T06:03:39.023Z,100334.47
2023-09-18T06:08:43.944Z,100323.72
2023-09-18T06:13:47.870Z,100317.53
2023-09-18T06:18:51.936Z,100323.03
2023-09-18T06:23:53.921Z,100327.44
2023-09-18T06:29:00.470Z,100337.53
2023-09-18T06:34:04.643Z,100313.47
2023-09-18T06:39:08.754Z,100307.81
2023-09-18T06:44:15.326Z,100299.69
2023-09-18T06:49:17.038Z,100287.53
2023-09-18T06:54:19.050Z,100305.44
2023-09-18T06:59:23.867Z,100310.03
2023-09-18T07:04:25.823Z,100308.13
2023-09-18T07:09:27.676Z,100306.00
2023-09-18T07:14:32.177Z,100312.81
2023-09-18T07:19:35.453Z,100304.47
2023-09-18T07:24:42.132Z,100300.53
2023-09-18T07:29:47.054Z,100285.69
2023-09-18T07:34:48.976Z,100303.16
2023-09-18T07:39:55.554Z,100307.56
2023-09-18T07:45:00.141Z,100299.50
2023-09-18T07:50:02.395Z,100310.63
2023-09-18T07:55:04.464Z,100303.34
2023-09-18T08:00:12.569Z,100297.34
2023-09-18T08:05:16.754Z,100312.53
2023-09-18T08:10:21.661Z,100291.91
2023-09-18T08:15:25.918Z,100279.78
2023-09-18T08:20:30.319Z,100293.94
2023-09-18T08:25:33.170Z,100297.34
2023-09-18T08:30:35.273Z,100315.06
2023-09-18T08:35:37.064Z,100333.22
2023-09-18T08:40:43.905Z,100337.03
2023-09-18T08:45:56.831Z,100330.25
2023-09-18T08:51:00.981Z,100339.50
2023-09-18T08:56:05.357Z,100347.88
2023-09-18T09:01:12.980Z,100345.72
2023-09-18T09:06:15.025Z,100335.69
2023-09-18T09:11:21.182Z,100333.19
2023-09-18T09:16:23.048Z,100329.84
2023-09-18T09:21:39.748Z,100324.44
2023-09-18T09:26:42.781Z,100341.41
2023-09-18T09:31:44.806Z,100305.31
2023-09-18T09:36:56.880Z,100333.13
2023-09-18T09:42:05.130Z,100343.47
2023-09-18T09:47:09.646Z,100351.38
2023-09-18T09:52:22.985Z,100322.00
2023-09-18T09:57:30.282Z,100326.88
2023-09-18T10:02:36.328Z,100345.56
2023-09-18T10:07:38.666Z,100359.63
2023-09-18T10:12:41.071Z,100342.53
2023-09-18T10:17:47.526Z,100329.53
2023-09-18T10:22:51.206Z,100348.28
2023-09-18T10:27:59.352Z,100358.38
2023-09-18T10:33:02.657Z,100366.00
2023-09-18T10:38:06.794Z,100361.47
2023-09-18T10:43:10.612Z,100354.19
2023-09-18T10:48:14.649Z,100365.88
2023-09-18T10:53:16.626Z,100369.75
2023-09-18T10:58:26.928Z,100376.22
2023-09-18T11:03:29.245Z,100374.66
2023-09-18T11:08:35.028Z,100356.53
2023-09-18T11:13:40.849Z,100350.44
2023-09-18T11:18:45.203Z,100360.06
2023-09-18T11:23:59.332Z,100363.59
2023-09-18T11:29:12.463Z,100371.50
2023-09-18T11:34:40.161Z,100363.97
2023-09-18T11:39:48.751Z,100369.16
2023-09-18T11:44:51.047Z,100370.78
2023-09-18T11:49:56.392Z,100369.72
2023-09-18T11:55:01.742Z,100364.16
2023-09-18T12:00:13.189Z,100353.69
2023-09-18T12:05:16.413Z,100356.47
2023-09-18T12:10:20.296Z,100360.06
2023-09-18T12:15:22.599Z,100372.38
2023-09-18T12:20:27.125Z,100380.31
2023-09-18T12:25:28.866Z,100379.69
2023-09-18T12:30:32.700Z,100386.28
2023-09-18T12:35:37.216Z,100377.72
2023-09-18T12:40:45.388Z,100362.56
2023-09-18T12:45:50.578Z,100364.72
2023-09-18T12:50:57.636Z,100364.72
2023-09-18T12:56:09.503Z,100351.69
2023-09-18T13:01:14.202Z,100335.22
2023-09-18T13:06:21.859Z,100348.00
2023-09-18T13:11:27.204Z,100355.44
2023-09-18T13:16:29.068Z,100367.19
2023-09-18T13:21:37.463Z,100349.13
2023-09-18T13:26:39.252Z,100361.16
2023-09-18T13:31:40.990Z,100359.09
2023-09-18T13:36:45.112Z,100355.53
2023-09-18T13:41:49.324Z,100361.47
2023-09-18T13:46:54.382Z,100361.75
2023-09-18T13:51:57.912Z,100349.13
2023-09-18T13:56:59.852Z,100341.84
2023-09-18T14:02:05.819Z,100346.28
2023-09-18T14:07:10.594Z,100342.91
2023-09-18T14:12:16.032Z,100337.59
2023-09-18T14:17:21.924Z,100328.56
2023-09-18T14:22:44.676Z,100322.91
2023-09-18T14:27:46.994Z,100322.47
2023-09-18T14:32:52.218Z,100317.53
2023-09-18T14:37:57.021Z,100284.09
2023-09-18T14:42:58.737Z,100296.41
2023-09-18T14:48:05.613Z,100313.22
2023-09-18T14:53:10.475Z,100306.53
2023-09-18T14:58:15.682Z,100295.22
2023-09-18T15:03:17.931Z,100306.00
2023-09-18T15:08:25.847Z,100296.41
2023-09-18T15:13:28.063Z,100290.78
2023-09-18T15:18:30.142Z,100290.03
2023-09-18T15:23:32.108Z,100291.38
2023-09-18T15:28:35.612Z,100287.56
2023-09-18T15:33:38.560Z,100293.78
2023-09-18T15:38:43.813Z,100297.41
2023-09-18T15:43:50.970Z,100292.25
2023-09-18T15:48:52.888Z,100296.13
2023-09-18T15:53:57.899Z,100299.94
2023-09-18T15:59:00.458Z,100287.56
2023-09-18T16:04:05.027Z,100278.94
2023-09-18T16:09:07.541Z,100285.22
2023-09-18T16:14:09.414Z,100280.34
2023-09-18T16:19:11.410Z,100272.75
2023-09-18T16:24:13.447Z,100278.78
2023-09-18T16:29:18.291Z,100275.81
2023-09-18T16:34:23.049Z,100272.84
2023-09-18T16:45:51.143Z,100271.25
2023-09-18T16:50:53.459Z,100258.19
2023-09-18T16:55:55.190Z,100262.00
2023-09-18T17:00:57.744Z,100249.47
2023-09-18T17:05:59.818Z,100245.38
2023-09-18T17:11:07.037Z,100243.50
2023-09-18T17:16:10.084Z,100234.53
2023-09-18T17:21:20.317Z,100235.06
2023-09-18T17:26:24.527Z,100223.66
2023-09-18T17:31:28.791Z,100221.47
2023-09-18T17:36:41.204Z,100215.75
2023-09-18T17:41:43.333Z,100213.00
2023-09-18T17:46:48.883Z,100215.94
2023-09-18T17:51:53.084Z,100214.03
2023-09-18T17:56:54.971Z,100210.75
2023-09-18T18:02:02.256Z,100199.06
2023-09-18T18:07:04.737Z,100191.97
2023-09-18T18:12:07.577Z,100194.94
2023-09-18T18:17:09.584Z,100202.53
2023-09-18T18:22:11.627Z,100188.91
2023-09-18T18:27:22.123Z,100190.00
2023-09-18T18:32:26.416Z,100200.03
2023-09-18T18:37:32.282Z,100216.59
2023-09-18T18:42:34.103Z,100246.66
2023-09-18T18:47:36.100Z,100244.84
2023-09-18T18:58:08.045Z,100264.84
2023-09-18T19:03:12.414Z,100252.22
2023-09-18T19:08:17.519Z,100249.16
2023-09-18T19:13:19.273Z,100226.53
2023-09-18T19:18:21.249Z,100227.81
2023-09-18T19:23:23.196Z,100207.38
2023-09-18T19:28:27.669Z,100205.16
2023-09-18T19:38:42.808Z,100211.16
2023-09-18T19:43:45.622Z,100217.09
2023-09-18T19:48:47.477Z,100199.25
2023-09-18T19:53:49.463Z,100212.91
2023-09-18T19:58:57.651Z,100199.44
2023-09-18T20:04:00.784Z,100211.03
2023-09-18T20:09:06.796Z,100191.34
2023-09-18T20:14:21.079Z,100196.63
2023-09-18T20:19:33.079Z,100182.22
2023-09-18T20:24:34.883Z,100166.97
2023-09-18T20:29:40.476Z,100179.00
2023-09-18T20:34:42.363Z,100174.25
2023-09-18T20:39:49.538Z,100186.56
2023-09-18T20:44:54.268Z,100180.50
2023-09-18T20:50:18.667Z,100174.53
2023-09-18T20:55:23.339Z,100172.31
2023-09-18T21:00:27.457Z,100168.22
2023-09-18T21:05:29.402Z,100174.66
2023-09-18T21:10:38.567Z,100179.53
2023-09-18T21:16:19.275Z,100194.09
2023-09-18T21:21:39.969Z,100169.19
2023-09-18T21:27:07.797Z,100193.53
2023-09-18T21:32:37.260Z,100192.72
2023-09-18T21:38:08.152Z,100201.41
2023-09-18T21:43:37.166Z,100205.16
2023-09-18T21:48:59.032Z,100215.41
2023-09-18T21:54:39.575Z,100221.09
2023-09-18T22:00:29.370Z,100230.03
2023-09-18T22:06:00.885Z,100237.06
2023-09-18T22:11:27.966Z,100251.16
2023-09-18T22:16:53.312Z,100251.16
2023-09-18T22:22:18.276Z,100266.25
2023-09-18T22:27:43.861Z,100256.72
2023-09-18T22:33:05.585Z,100250.44
2023-09-18T22:38:41.414Z,100245.16
2023-09-18T22:44:44.058Z,100262.94
2023-09-18T22:50:43.575Z,100280.72
2023-09-18T22:56:08.628Z,100287.44
2023-09-18T23:01:31.484Z,100300.38
2023-09-18T23:07:02.205Z,100326.81
2023-09-18T23:12:24.801Z,100311.31
2023-09-18T23:17:47.440Z,100318.38
2023-09-18T23:23:12.367Z,100316.75
2023-09-18T23:28:16.356Z,100314.03
2023-09-18T23:33:22.503Z,100322.03
2023-09-18T23:38:27.885Z,100334.41
2023-09-18T23:43:34.909Z,100341.56
2023-09-18T23:48:36.699Z,100338.78
2023-09-18T23:53:38.835Z,100351.13
2023-09-18T23:58:41.791Z,100342.66
